sensor_id;sensor_type;location;lat;lon;timestamp;pressure;altitude;pressure_sealevel;temperature;humidity
15260;BME280;34462;51.368;12.364;2023-06-22T00:01:26;21537.66;;;-141.84;72.64
15260;BME280;34462;51.368;12.364;2023-06-22T00:03:54;21501.06;;;-141.84;73.25
15260;BME280;34462;51.368;12.364;2023-06-22T00:06:24;21503.09;;;-141.84;73.54
15260;BME280;34462;51.368;12.364;2023-06-22T00:08:53;21472.59;;;-141.84;74.25
15260;BME280;34462;51.368;12.364;2023-06-22T00:11:21;21460.41;;;-141.84;74.38
15260;BME280;34462;51.368;12.364;2023-06-22T00:13:50;21492.94;;;-141.84;73.46
15260;BME280;34462;51.368;12.364;2023-06-22T00:16:19;21507.16;;;-141.84;73.97
15260;BME280;34462;51.368;12.364;2023-06-22T00:18:47;21482.75;;;-141.84;74.29
15260;BME280;34462;51.368;12.364;2023-06-22T00:21:16;21452.25;;;-141.84;73.93
15260;BME280;34462;51.368;12.364;2023-06-22T00:23:47;21507.16;;;-141.84;73.59
15260;BME280;34462;51.368;12.364;2023-06-22T00:26:16;21444.13;;;-141.84;74.08
15260;BME280;34462;51.368;12.364;2023-06-22T00:28:45;21458.38;;;-141.84;74.04
15260;BME280;34462;51.368;12.364;2023-06-22T00:31:14;21476.66;;;-141.84;74.07
15260;BME280;34462;51.368;12.364;2023-06-22T00:33:42;21444.13;;;-141.84;74.29
15260;BME280;34462;51.368;12.364;2023-06-22T00:36:11;21436.00;;;-141.84;74.26
15260;BME280;34462;51.368;12.364;2023-06-22T00:38:43;21405.50;;;-141.84;74.20
15260;BME280;34462;51.368;12.364;2023-06-22T00:41:13;21415.66;;;-141.84;74.92
15260;BME280;34462;51.368;12.364;2023-06-22T00:43:41;21433.97;;;-141.84;75.19
15260;BME280;34462;51.368;12.364;2023-06-22T00:46:10;21431.94;;;-141.84;74.75
15260;BME280;34462;51.368;12.364;2023-06-22T00:48:39;21393.31;;;-141.84;74.75
15260;BME280;34462;51.368;12.364;2023-06-22T00:51:09;21383.13;;;-141.84;75.23
15260;BME280;34462;51.368;12.364;2023-06-22T00:53:37;21415.66;;;-141.84;75.01
15260;BME280;34462;51.368;12.364;2023-06-22T00:56:06;21423.81;;;-141.84;75.10
15260;BME280;34462;51.368;12.364;2023-06-22T00:58:37;21379.06;;;-141.84;74.91
15260;BME280;34462;51.368;12.364;2023-06-22T01:01:08;21411.59;;;-141.84;75.01
15260;BME280;34462;51.368;12.364;2023-06-22T01:03:37;21362.81;;;-141.84;75.08
15260;BME280;34462;51.368;12.364;2023-06-22T01:06:10;21362.81;;;-141.84;75.19
15260;BME280;34462;51.368;12.364;2023-06-22T01:08:45;21362.81;;;-141.84;75.24
15260;BME280;34462;51.368;12.364;2023-06-22T01:11:19;21401.44;;;-141.84;74.66
15260;BME280;34462;51.368;12.364;2023-06-22T01:13:59;21383.13;;;-141.84;74.75
15260;BME280;34462;51.368;12.364;2023-06-22T01:16:33;21360.78;;;-141.84;75.18
15260;BME280;34462;51.368;12.364;2023-06-22T01:19:09;21362.81;;;-141.84;75.52
15260;BME280;34462;51.368;12.364;2023-06-22T01:21:43;21346.53;;;-141.84;75.53
15260;BME280;34462;51.368;12.364;2023-06-22T01:24:21;21395.34;;;-141.84;75.59
15260;BME280;34462;51.368;12.364;2023-06-22T01:26:57;21348.56;;;-141.84;75.70
15260;BME280;34462;51.368;12.364;2023-06-22T01:29:31;21429.91;;;-141.84;75.12
15260;BME280;34462;51.368;12.364;2023-06-22T01:32:03;21383.13;;;-141.84;75.54
15260;BME280;34462;51.368;12.364;2023-06-22T01:34:36;21322.13;;;-141.84;76.25
15260;BME280;34462;51.368;12.364;2023-06-22T01:37:07;21346.53;;;-141.84;76.63
15260;BME280;34462;51.368;12.364;2023-06-22T01:39:36;21358.75;;;-141.84;75.35
15260;BME280;34462;51.368;12.364;2023-06-22T01:42:05;21352.63;;;-141.84;75.82
15260;BME280;34462;51.368;12.364;2023-06-22T01:44:36;21314.00;;;-141.84;76.07
15260;BME280;34462;51.368;12.364;2023-06-22T01:47:05;21320.09;;;-141.84;76.22
15260;BME280;34462;51.368;12.364;2023-06-22T01:49:35;21336.38;;;-141.84;76.36
15260;BME280;34462;51.368;12.364;2023-06-22T01:52:04;21354.66;;;-141.84;75.96
15260;BME280;34462;51.368;12.364;2023-06-22T01:54:33;21338.41;;;-141.84;76.09
15260;BME280;34462;51.368;12.364;2023-06-22T01:57:02;21387.19;;;-141.84;75.43
15260;BME280;34462;51.368;12.364;2023-06-22T01:59:37;21346.53;;;-141.84;75.88
15260;BME280;34462;51.368;12.364;2023-06-22T02:02:10;21336.38;;;-141.84;76.31
15260;BME280;34462;51.368;12.364;2023-06-22T02:04:44;21307.91;;;-141.84;76.26
15260;BME280;34462;51.368;12.364;2023-06-22T02:07:17;21314.00;;;-141.84;76.66
15260;BME280;34462;51.368;12.364;2023-06-22T02:09:49;21322.13;;;-141.84;75.22
15260;BME280;34462;51.368;12.364;2023-06-22T02:12:25;21366.88;;;-141.84;73.65
15260;BME280;34462;51.368;12.364;2023-06-22T02:14:57;21397.38;;;-141.84;73.17
15260;BME280;34462;51.368;12.364;2023-06-22T02:17:28;21387.19;;;-141.84;73.29
15260;BME280;34462;51.368;12.364;2023-06-22T02:20:02;21358.75;;;-141.84;73.99
15260;BME280;34462;51.368;12.364;2023-06-22T02:22:35;21334.34;;;-141.84;73.98
15260;BME280;34462;51.368;12.364;2023-06-22T02:25:04;21330.28;;;-141.84;73.87
15260;BME280;34462;51.368;12.364;2023-06-22T02:27:33;21324.19;;;-141.84;74.74
15260;BME280;34462;51.368;12.364;2023-06-22T02:30:03;21311.97;;;-141.84;74.76
15260;BME280;34462;51.368;12.364;2023-06-22T02:32:32;21297.75;;;-141.84;74.75
15260;BME280;34462;51.368;12.364;2023-06-22T02:35:01;21322.13;;;-141.84;74.66
15260;BME280;34462;51.368;12.364;2023-06-22T02:37:32;21346.53;;;-141.84;74.51
15260;BME280;34462;51.368;12.364;2023-06-22T02:40:00;21281.47;;;-141.84;75.41
15260;BME280;34462;51.368;12.364;2023-06-22T02:42:31;21316.03;;;-141.84;75.89
15260;BME280;34462;51.368;12.364;2023-06-22T02:44:59;21299.78;;;-141.84;76.00
15260;BME280;34462;51.368;12.364;2023-06-22T02:47:30;21281.47;;;-141.84;75.89
15260;BME280;34462;51.368;12.364;2023-06-22T02:49:58;21307.91;;;-141.84;75.28
15260;BME280;34462;51.368;12.364;2023-06-22T02:52:27;21232.69;;;-141.84;76.23
15260;BME280;34462;51.368;12.364;2023-06-22T02:54:56;21216.41;;;-141.84;76.94
15260;BME280;34462;51.368;12.364;2023-06-22T02:57:24;21238.78;;;-141.84;76.78
15260;BME280;34462;51.368;12.364;2023-06-22T02:59:53;21263.19;;;-141.84;76.71
15260;BME280;34462;51.368;12.364;2023-06-22T03:02:22;21226.59;;;-141.84;77.14
15260;BME280;34462;51.368;12.364;2023-06-22T03:04:52;21220.47;;;-141.84;77.18
15260;BME280;34462;51.368;12.364;2023-06-22T03:07:21;21230.66;;;-141.84;76.79
15260;BME280;34462;51.368;12.364;2023-06-22T03:09:49;21240.81;;;-141.84;77.08
15260;BME280;34462;51.368;12.364;2023-06-22T03:12:18;21214.38;;;-141.84;77.54
15260;BME280;34462;51.368;12.364;2023-06-22T03:14:46;21230.66;;;-141.84;77.90
15260;BME280;34462;51.368;12.364;2023-06-22T03:17:15;21236.75;;;-141.84;78.03
15260;BME280;34462;51.368;12.364;2023-06-22T03:19:43;21181.84;;;-141.84;77.71
15260;BME280;34462;51.368;12.364;2023-06-22T03:22:13;21238.78;;;-141.84;77.51
15260;BME280;34462;51.368;12.364;2023-06-22T03:24:42;21253.00;;;-141.84;77.16
15260;BME280;34462;51.368;12.364;2023-06-22T03:27:10;21255.03;;;-141.84;76.49
15260;BME280;34462;51.368;12.364;2023-06-22T03:29:39;21257.09;;;-141.84;77.07
15260;BME280;34462;51.368;12.364;2023-06-22T03:32:07;21275.38;;;-141.84;77.24
15260;BME280;34462;51.368;12.364;2023-06-22T03:34:36;21261.16;;;-141.84;77.26
15260;BME280;34462;51.368;12.364;2023-06-22T03:37:05;21226.59;;;-141.84;77.29
15260;BME280;34462;51.368;12.364;2023-06-22T03:39:34;21242.84;;;-141.84;77.74
15260;BME280;34462;51.368;12.364;2023-06-22T03:42:03;21279.44;;;-141.84;78.25
15260;BME280;34462;51.368;12.364;2023-06-22T03:44:32;21269.28;;;-141.84;77.88
15260;BME280;34462;51.368;12.364;2023-06-22T03:47:00;21261.16;;;-141.84;78.13
15260;BME280;34462;51.368;12.364;2023-06-22T03:49:29;21253.00;;;-141.84;77.71
15260;BME280;34462;51.368;12.364;2023-06-22T03:51:58;21248.94;;;-141.84;77.79
15260;BME280;34462;51.368;12.364;2023-06-22T03:54:26;21248.94;;;-141.84;77.25
15260;BME280;34462;51.368;12.364;2023-06-22T03:56:57;21279.44;;;-141.84;76.72
15260;BME280;34462;51.368;12.364;2023-06-22T03:59:25;21273.34;;;-141.84;76.77
15260;BME280;34462;51.368;12.364;2023-06-22T04:01:54;21263.19;;;-141.84;77.31
15260;BME280;34462;51.368;12.364;2023-06-22T04:04:22;21301.81;;;-141.84;77.67
15260;BME280;34462;51.368;12.364;2023-06-22T04:06:51;21287.56;;;-141.84;77.46
15260;BME280;34462;51.368;12.364;2023-06-22T04:09:20;21316.03;;;-141.84;76.97
15260;BME280;34462;51.368;12.364;2023-06-22T04:11:49;21356.69;;;-141.84;76.40
15260;BME280;34462;51.368;12.364;2023-06-22T04:14:18;21362.81;;;-141.84;76.31
15260;BME280;34462;51.368;12.364;2023-06-22T04:16:47;21464.47;;;-141.84;75.15
15260;BME280;34462;51.368;12.364;2023-06-22T04:19:15;21486.81;;;-141.84;74.80
15260;BME280;34462;51.368;12.364;2023-06-22T04:21:45;21501.06;;;-141.84;73.82
15260;BME280;34462;51.368;12.364;2023-06-22T04:24:15;21576.28;;;-141.84;73.26
15260;BME280;34462;51.368;12.364;2023-06-22T04:26:44;21547.81;;;-141.84;73.16
15260;BME280;34462;51.368;12.364;2023-06-22T04:29:14;21562.06;;;-141.84;73.23
15260;BME280;34462;51.368;12.364;2023-06-22T04:31:44;21545.78;;;-141.84;73.86
15260;BME280;34462;51.368;12.364;2023-06-22T04:34:18;21547.81;;;-141.84;73.66
15260;BME280;34462;51.368;12.364;2023-06-22T04:36:46;21555.97;;;-141.84;73.87
15260;BME280;34462;51.368;12.364;2023-06-22T04:39:15;21551.91;;;-141.84;73.78
15260;BME280;34462;51.368;12.364;2023-06-22T04:41:44;21619.00;;;-141.84;73.45
15260;BME280;34462;51.368;12.364;2023-06-22T04:44:13;21665.75;;;-141.84;72.87
15260;BME280;34462;51.368;12.364;2023-06-22T04:46:54;21610.84;;;-141.84;73.00
15260;BME280;34462;51.368;12.364;2023-06-22T04:49:27;21582.38;;;-141.84;73.85
15260;BME280;34462;51.368;12.364;2023-06-22T04:52:01;21606.78;;;-141.84;73.64
15260;BME280;34462;51.368;12.364;2023-06-22T04:54:30;21610.84;;;-141.84;73.67
15260;BME280;34462;51.368;12.364;2023-06-22T04:57:00;21653.56;;;-141.84;73.78
15260;BME280;34462;51.368;12.364;2023-06-22T04:59:30;21661.69;;;-141.84;73.01
15260;BME280;34462;51.368;12.364;2023-06-22T05:02:01;21700.31;;;-141.84;72.08
15260;BME280;34462;51.368;12.364;2023-06-22T05:04:30;21708.47;;;-141.84;71.98
15260;BME280;34462;51.368;12.364;2023-06-22T05:07:00;21673.88;;;-141.84;72.27
15260;BME280;34462;51.368;12.364;2023-06-22T05:09:29;21698.28;;;-141.84;72.58
15260;BME280;34462;51.368;12.364;2023-06-22T05:11:58;21726.75;;;-141.84;72.19
15260;BME280;34462;51.368;12.364;2023-06-22T05:14:27;21812.16;;;-141.84;71.55
15260;BME280;34462;51.368;12.364;2023-06-22T05:16:55;21987.03;;;-141.84;68.48
15260;BME280;34462;51.368;12.364;2023-06-22T05:19:27;22227.00;;;-141.84;65.98
15260;BME280;34462;51.368;12.364;2023-06-22T05:22:00;22375.44;;;-141.84;62.59
15260;BME280;34462;51.368;12.364;2023-06-22T05:24:29;22674.41;;;-141.84;59.76
15260;BME280;34462;51.368;12.364;2023-06-22T05:26:58;23113.75;;;-141.84;56.51
15260;BME280;34462;51.368;12.364;2023-06-22T05:29:26;23506.34;;;-141.84;52.37
15260;BME280;34462;51.368;12.364;2023-06-22T05:31:55;23534.84;;;-141.84;51.84
15260;BME280;34462;51.368;12.364;2023-06-22T05:34:23;23274.44;;;-141.84;53.17
15260;BME280;34462;51.368;12.364;2023-06-22T05:36:53;22985.59;;;-141.84;54.74
15260;BME280;34462;51.368;12.364;2023-06-22T05:39:21;22873.75;;;-141.84;56.25
15260;BME280;34462;51.368;12.364;2023-06-22T05:41:50;22759.84;;;-141.84;57.22
15260;BME280;34462;51.368;12.364;2023-06-22T05:44:19;22613.41;;;-141.84;58.97
15260;BME280;34462;51.368;12.364;2023-06-22T05:46:47;22519.84;;;-141.84;59.88
15260;BME280;34462;51.368;12.364;2023-06-22T05:49:16;22558.50;;;-141.84;59.67
15260;BME280;34462;51.368;12.364;2023-06-22T05:51:44;22544.25;;;-141.84;59.60
15260;BME280;34462;51.368;12.364;2023-06-22T05:54:14;22621.53;;;-141.84;59.27
15260;BME280;34462;51.368;12.364;2023-06-22T05:56:45;22700.84;;;-141.84;58.87
15260;BME280;34462;51.368;12.364;2023-06-22T05:59:13;22727.28;;;-141.84;58.50
15260;BME280;34462;51.368;12.364;2023-06-22T06:01:42;22621.53;;;-141.84;58.35
15260;BME280;34462;51.368;12.364;2023-06-22T06:04:10;22635.78;;;-141.84;58.44
15260;BME280;34462;51.368;12.364;2023-06-22T06:06:39;22623.56;;;-141.84;58.46
15260;BME280;34462;51.368;12.364;2023-06-22T06:09:08;22623.56;;;-141.84;57.64
15260;BME280;34462;51.368;12.364;2023-06-22T06:11:37;22674.41;;;-141.84;57.81
15260;BME280;34462;51.368;12.364;2023-06-22T06:14:06;22788.31;;;-141.84;56.84
15260;BME280;34462;51.368;12.364;2023-06-22T06:16:34;22802.56;;;-141.84;56.42
15260;BME280;34462;51.368;12.364;2023-06-22T06:19:03;22798.47;;;-141.84;56.17
15260;BME280;34462;51.368;12.364;2023-06-22T06:21:32;22757.81;;;-141.84;55.66
15260;BME280;34462;51.368;12.364;2023-06-22T06:24:00;22798.47;;;-141.84;55.12
15260;BME280;34462;51.368;12.364;2023-06-22T06:26:29;22877.81;;;-141.84;54.14
15260;BME280;34462;51.368;12.364;2023-06-22T06:29:02;22912.38;;;-141.84;53.39
15260;BME280;34462;51.368;12.364;2023-06-22T06:31:30;22949.00;;;-141.84;52.79
15260;BME280;34462;51.368;12.364;2023-06-22T06:33:59;22961.19;;;-141.84;52.29
15260;BME280;34462;51.368;12.364;2023-06-22T06:36:27;22887.97;;;-141.84;52.87
15260;BME280;34462;51.368;12.364;2023-06-22T06:38:56;22910.34;;;-141.84;52.79
15260;BME280;34462;51.368;12.364;2023-06-22T06:41:24;22920.53;;;-141.84;52.88
15260;BME280;34462;51.368;12.364;2023-06-22T06:43:53;22944.94;;;-141.84;53.06
15260;BME280;34462;51.368;12.364;2023-06-22T06:46:23;22967.31;;;-141.84;53.64
15260;BME280;34462;51.368;12.364;2023-06-22T06:48:51;23016.13;;;-141.84;53.11
15260;BME280;34462;51.368;12.364;2023-06-22T06:51:20;23071.03;;;-141.84;51.82
15260;BME280;34462;51.368;12.364;2023-06-22T06:53:49;23189.00;;;-141.84;50.89
15260;BME280;34462;51.368;12.364;2023-06-22T06:56:17;23313.09;;;-141.84;49.89
15260;BME280;34462;51.368;12.364;2023-06-22T06:58:46;23298.84;;;-141.84;50.39
15260;BME280;34462;51.368;12.364;2023-06-22T07:01:14;23394.47;;;-141.84;49.86
15260;BME280;34462;51.368;12.364;2023-06-22T07:03:45;23392.44;;;-141.84;50.18
15260;BME280;34462;51.368;12.364;2023-06-22T07:06:14;23335.47;;;-141.84;49.74
15260;BME280;34462;51.368;12.364;2023-06-22T07:08:43;23331.41;;;-141.84;50.08
15260;BME280;34462;51.368;12.364;2023-06-22T07:11:12;23250.03;;;-141.84;50.19
15260;BME280;34462;51.368;12.364;2023-06-22T07:13:41;23268.34;;;-141.84;50.23
15260;BME280;34462;51.368;12.364;2023-06-22T07:16:09;23262.25;;;-141.84;50.34
15260;BME280;34462;51.368;12.364;2023-06-22T07:18:40;23233.75;;;-141.84;50.52
15260;BME280;34462;51.368;12.364;2023-06-22T07:21:10;23172.75;;;-141.84;51.04
15260;BME280;34462;51.368;12.364;2023-06-22T07:23:38;23268.34;;;-141.84;50.30
15260;BME280;34462;51.368;12.364;2023-06-22T07:26:07;23333.44;;;-141.84;49.69
15260;BME280;34462;51.368;12.364;2023-06-22T07:28:35;23392.44;;;-141.84;49.11
15260;BME280;34462;51.368;12.364;2023-06-22T07:31:05;23457.53;;;-141.84;49.36
15260;BME280;34462;51.368;12.364;2023-06-22T07:33:34;23532.78;;;-141.84;48.73
15260;BME280;34462;51.368;12.364;2023-06-22T07:36:02;23498.22;;;-141.84;48.58
15260;BME280;34462;51.368;12.364;2023-06-22T07:38:36;23437.19;;;-141.84;48.59
15260;BME280;34462;51.368;12.364;2023-06-22T07:41:05;23424.97;;;-141.84;49.10
15260;BME280;34462;51.368;12.364;2023-06-22T07:43:33;23414.81;;;-141.84;49.15
15260;BME280;34462;51.368;12.364;2023-06-22T07:46:04;23502.28;;;-141.84;48.77
15260;BME280;34462;51.368;12.364;2023-06-22T07:48:32;23571.44;;;-141.84;48.15
15260;BME280;34462;51.368;12.364;2023-06-22T07:51:01;23622.31;;;-141.84;47.50
15260;BME280;34462;51.368;12.364;2023-06-22T07:53:29;23687.41;;;-141.84;47.05
15260;BME280;34462;51.368;12.364;2023-06-22T07:55:59;23681.31;;;-141.84;47.17
15260;BME280;34462;51.368;12.364;2023-06-22T07:58:28;23656.88;;;-141.84;47.43
15260;BME280;34462;51.368;12.364;2023-06-22T08:00:57;23654.84;;;-141.84;47.88
15260;BME280;34462;51.368;12.364;2023-06-22T08:03:25;23656.88;;;-141.84;47.78
15260;BME280;34462;51.368;12.364;2023-06-22T08:05:54;23660.97;;;-141.84;47.05
15260;BME280;34462;51.368;12.364;2023-06-22T08:08:22;23652.81;;;-141.84;47.15
15260;BME280;34462;51.368;12.364;2023-06-22T08:10:51;23581.63;;;-141.84;47.45
15260;BME280;34462;51.368;12.364;2023-06-22T08:13:21;23587.72;;;-141.84;47.15
15260;BME280;34462;51.368;12.364;2023-06-22T08:15:49;23610.09;;;-141.84;46.63
15260;BME280;34462;51.368;12.364;2023-06-22T08:18:18;23551.09;;;-141.84;47.00
15260;BME280;34462;51.368;12.364;2023-06-22T08:20:46;23518.56;;;-141.84;47.31
15260;BME280;34462;51.368;12.364;2023-06-22T08:23:15;23524.66;;;-141.84;47.92
15260;BME280;34462;51.368;12.364;2023-06-22T08:25:43;23494.16;;;-141.84;47.92
15260;BME280;34462;51.368;12.364;2023-06-22T08:28:12;23494.16;;;-141.84;48.42
15260;BME280;34462;51.368;12.364;2023-06-22T08:30:42;23494.16;;;-141.84;48.20
15260;BME280;34462;51.368;12.364;2023-06-22T08:33:11;23490.06;;;-141.84;48.29
15260;BME280;34462;51.368;12.364;2023-06-22T08:35:53;23534.84;;;-141.84;47.79
15260;BME280;34462;51.368;12.364;2023-06-22T08:38:22;23526.69;;;-141.84;47.46
15260;BME280;34462;51.368;12.364;2023-06-22T08:40:50;23494.16;;;-141.84;47.15
15260;BME280;34462;51.368;12.364;2023-06-22T08:43:19;23532.78;;;-141.84;47.66
15260;BME280;34462;51.368;12.364;2023-06-22T08:45:49;23545.00;;;-141.84;47.50
15260;BME280;34462;51.368;12.364;2023-06-22T08:48:17;23636.53;;;-141.84;46.91
15260;BME280;34462;51.368;12.364;2023-06-22T08:50:46;23693.50;;;-141.84;47.05
15260;BME280;34462;51.368;12.364;2023-06-22T08:53:14;23750.47;;;-141.84;46.53
15260;BME280;34462;51.368;12.364;2023-06-22T08:55:43;23726.06;;;-141.84;45.70
15260;BME280;34462;51.368;12.364;2023-06-22T08:58:12;23789.13;;;-141.84;45.98
15260;BME280;34462;51.368;12.364;2023-06-22T09:00:40;23783.03;;;-141.84;45.03
15260;BME280;34462;51.368;12.364;2023-06-22T09:03:10;23860.34;;;-141.84;45.03
15260;BME280;34462;51.368;12.364;2023-06-22T09:05:39;23848.13;;;-141.84;45.60
15260;BME280;34462;51.368;12.364;2023-06-22T09:08:08;23896.94;;;-141.84;45.38
15260;BME280;34462;51.368;12.364;2023-06-22T09:10:36;24061.75;;;-141.84;44.40
15260;BME280;34462;51.368;12.364;2023-06-22T09:13:05;24082.09;;;-141.84;44.46
15260;BME280;34462;51.368;12.364;2023-06-22T09:15:33;24059.72;;;-141.84;44.26
15260;BME280;34462;51.368;12.364;2023-06-22T09:18:02;24137.03;;;-141.84;43.97
15260;BME280;34462;51.368;12.364;2023-06-22T09:20:32;24041.41;;;-141.84;44.09
15260;BME280;34462;51.368;12.364;2023-06-22T09:23:01;23929.50;;;-141.84;44.53
15260;BME280;34462;51.368;12.364;2023-06-22T09:25:30;23807.44;;;-141.84;44.79
15260;BME280;34462;51.368;12.364;2023-06-22T09:27:58;23760.66;;;-141.84;45.36
15260;BME280;34462;51.368;12.364;2023-06-22T09:30:27;23770.81;;;-141.84;45.16
15260;BME280;34462;51.368;12.364;2023-06-22T09:32:56;23774.88;;;-141.84;45.87
15260;BME280;34462;51.368;12.364;2023-06-22T09:35:24;23756.56;;;-141.84;45.67
15260;BME280;34462;51.368;12.364;2023-06-22T09:37:54;23791.16;;;-141.84;45.17
15260;BME280;34462;51.368;12.364;2023-06-22T09:40:23;23797.25;;;-141.84;45.33
15260;BME280;34462;51.368;12.364;2023-06-22T09:42:51;23860.34;;;-141.84;45.32
15260;BME280;34462;51.368;12.364;2023-06-22T09:45:20;23907.13;;;-141.84;44.64
15260;BME280;34462;51.368;12.364;2023-06-22T09:47:48;23756.56;;;-141.84;45.27
15260;BME280;34462;51.368;12.364;2023-06-22T09:50:17;23742.34;;;-141.84;45.34
15260;BME280;34462;51.368;12.364;2023-06-22T09:52:45;23772.84;;;-141.84;45.37
15260;BME280;34462;51.368;12.364;2023-06-22T09:55:19;23675.19;;;-141.84;45.22
15260;BME280;34462;51.368;12.364;2023-06-22T09:57:47;23722.00;;;-141.84;45.90
15260;BME280;34462;51.368;12.364;2023-06-22T10:00:17;23848.13;;;-141.84;45.56
15260;BME280;34462;51.368;12.364;2023-06-22T10:02:47;23888.81;;;-141.84;44.82
15260;BME280;34462;51.368;12.364;2023-06-22T10:05:16;24014.94;;;-141.84;44.45
15260;BME280;34462;51.368;12.364;2023-06-22T10:07:45;24189.94;;;-141.84;43.30
15260;BME280;34462;51.368;12.364;2023-06-22T10:10:13;24322.19;;;-141.84;42.16
15260;BME280;34462;51.368;12.364;2023-06-22T10:12:45;24340.50;;;-141.84;42.35
15260;BME280;34462;51.368;12.364;2023-06-22T10:15:15;24332.34;;;-141.84;41.96
15260;BME280;34462;51.368;12.364;2023-06-22T10:17:44;24279.47;;;-141.84;42.18
15260;BME280;34462;51.368;12.364;2023-06-22T10:20:13;24185.84;;;-141.84;42.73
15260;BME280;34462;51.368;12.364;2023-06-22T10:22:43;24106.50;;;-141.84;42.66
15260;BME280;34462;51.368;12.364;2023-06-22T10:25:13;24010.88;;;-141.84;42.97
15260;BME280;34462;51.368;12.364;2023-06-22T10:27:43;23947.81;;;-141.84;43.40
15260;BME280;34462;51.368;12.364;2023-06-22T10:30:12;23970.19;;;-141.84;43.09
15260;BME280;34462;51.368;12.364;2023-06-22T10:32:42;23962.06;;;-141.84;43.48
15260;BME280;34462;51.368;12.364;2023-06-22T10:35:11;23964.09;;;-141.84;43.71
15260;BME280;34462;51.368;12.364;2023-06-22T10:37:43;23929.50;;;-141.84;43.68
15260;BME280;34462;51.368;12.364;2023-06-22T10:40:13;23986.47;;;-141.84;43.02
15260;BME280;34462;51.368;12.364;2023-06-22T10:42:44;23986.47;;;-141.84;43.36
15260;BME280;34462;51.368;12.364;2023-06-22T10:45:12;24014.94;;;-141.84;43.09
15260;BME280;34462;51.368;12.364;2023-06-22T10:47:41;24094.31;;;-141.84;43.40
15260;BME280;34462;51.368;12.364;2023-06-22T10:50:10;24122.78;;;-141.84;42.87
15260;BME280;34462;51.368;12.364;2023-06-22T10:52:39;24238.75;;;-141.84;42.56
15260;BME280;34462;51.368;12.364;2023-06-22T10:55:09;24291.66;;;-141.84;42.35
15260;BME280;34462;51.368;12.364;2023-06-22T10:57:37;24173.66;;;-141.84;42.18
15260;BME280;34462;51.368;12.364;2023-06-22T11:00:11;24145.16;;;-141.84;42.78
15260;BME280;34462;51.368;12.364;2023-06-22T11:02:40;24212.31;;;-141.84;41.96
15260;BME280;34462;51.368;12.364;2023-06-22T11:05:09;24202.13;;;-141.84;41.99
15260;BME280;34462;51.368;12.364;2023-06-22T11:07:40;24181.78;;;-141.84;41.32
15260;BME280;34462;51.368;12.364;2023-06-22T11:10:10;24226.56;;;-141.84;41.43
15260;BME280;34462;51.368;12.364;2023-06-22T11:12:39;24303.88;;;-141.84;41.34
15260;BME280;34462;51.368;12.364;2023-06-22T11:15:09;24326.25;;;-141.84;41.32
15260;BME280;34462;51.368;12.364;2023-06-22T11:17:38;24454.44;;;-141.84;40.86
15260;BME280;34462;51.368;12.364;2023-06-22T11:20:07;24489.03;;;-141.84;40.33
15260;BME280;34462;51.368;12.364;2023-06-22T11:22:39;24519.56;;;-141.84;39.97
15260;BME280;34462;51.368;12.364;2023-06-22T11:25:08;24511.41;;;-141.84;40.19
15260;BME280;34462;51.368;12.364;2023-06-22T11:27:36;24588.75;;;-141.84;39.92
15260;BME280;34462;51.368;12.364;2023-06-22T11:30:06;24523.63;;;-141.84;40.32
15260;BME280;34462;51.368;12.364;2023-06-22T11:32:36;24476.81;;;-141.84;40.11
15260;BME280;34462;51.368;12.364;2023-06-22T11:35:05;24487.00;;;-141.84;40.62
15260;BME280;34462;51.368;12.364;2023-06-22T11:37:34;24537.88;;;-141.84;40.12
15260;BME280;34462;51.368;12.364;2023-06-22T11:40:03;24491.06;;;-141.84;40.33
15260;BME280;34462;51.368;12.364;2023-06-22T11:42:35;24330.31;;;-141.84;41.32
15260;BME280;34462;51.368;12.364;2023-06-22T11:45:06;24265.22;;;-141.84;41.43
15260;BME280;34462;51.368;12.364;2023-06-22T11:47:36;24305.91;;;-141.84;41.35
15260;BME280;34462;51.368;12.364;2023-06-22T11:50:07;24354.75;;;-141.84;41.85
15260;BME280;34462;51.368;12.364;2023-06-22T11:52:36;24482.94;;;-141.84;41.53
15260;BME280;34462;51.368;12.364;2023-06-22T11:55:05;24519.56;;;-141.84;40.81
15260;BME280;34462;51.368;12.364;2023-06-22T11:57:35;24570.44;;;-141.84;40.47
15260;BME280;34462;51.368;12.364;2023-06-22T12:00:05;24627.41;;;-141.84;41.03
15260;BME280;34462;51.368;12.364;2023-06-22T12:02:45;24678.28;;;-141.84;40.57
15260;BME280;34462;51.368;12.364;2023-06-22T12:05:14;24578.56;;;-141.84;40.72
15260;BME280;34462;51.368;12.364;2023-06-22T12:07:42;24570.44;;;-141.84;40.67
15260;BME280;34462;51.368;12.364;2023-06-22T12:10:11;24503.28;;;-141.84;41.33
15260;BME280;34462;51.368;12.364;2023-06-22T12:12:39;24556.19;;;-141.84;41.70
15260;BME280;34462;51.368;12.364;2023-06-22T12:15:10;24598.91;;;-141.84;40.72
15260;BME280;34462;51.368;12.364;2023-06-22T12:17:39;24639.63;;;-141.84;40.50
15260;BME280;34462;51.368;12.364;2023-06-22T12:20:10;24550.06;;;-141.84;41.21
15260;BME280;34462;51.368;12.364;2023-06-22T12:22:39;24607.06;;;-141.84;41.21
15260;BME280;34462;51.368;12.364;2023-06-22T12:25:08;24714.91;;;-141.84;40.42
15260;BME280;34462;51.368;12.364;2023-06-22T12:27:37;24832.94;;;-141.84;40.24
15260;BME280;34462;51.368;12.364;2023-06-22T12:30:07;25003.88;;;-141.84;39.71
15260;BME280;34462;51.368;12.364;2023-06-22T12:32:36;25020.16;;;-141.84;39.05
15260;BME280;34462;51.368;12.364;2023-06-22T12:35:06;25158.53;;;-141.84;38.81
15260;BME280;34462;51.368;12.364;2023-06-22T12:37:40;25136.16;;;-141.84;38.96
15260;BME280;34462;51.368;12.364;2023-06-22T12:40:10;25091.38;;;-141.84;38.61
15260;BME280;34462;51.368;12.364;2023-06-22T12:42:39;25069.00;;;-141.84;39.17